sensor_id;sensor_type;location;lat;lon;timestamp;temperature;humidity
65231;DHT22;51813;40.666;16.602;2023-04-25T00:01:13;18.40;54.00
65231;DHT22;51813;40.666;16.602;2023-04-25T00:03:39;18.40;54.00
65231;DHT22;51813;40.666;16.602;2023-04-25T00:06:06;18.40;53.30
65231;DHT22;51813;40.666;16.602;2023-04-25T00:08:32;18.30;53.60
65231;DHT22;51813;40.666;16.602;2023-04-25T00:10:58;18.30;54.00
65231;DHT22;51813;40.666;16.602;2023-04-25T00:13:24;18.40;53.50
65231;DHT22;51813;40.666;16.602;2023-04-25T00:15:51;18.40;53.80
65231;DHT22;51813;40.666;16.602;2023-04-25T00:18:19;18.40;53.90
65231;DHT22;51813;40.666;16.602;2023-04-25T00:20:44;18.40;53.80
65231;DHT22;51813;40.666;16.602;2023-04-25T00:23:13;18.40;53.70
65231;DHT22;51813;40.666;16.602;2023-04-25T00:25:44;18.40;53.60
65231;DHT22;51813;40.666;16.602;2023-04-25T00:28:11;18.40;53.80
65231;DHT22;51813;40.666;16.602;2023-04-25T00:30:37;18.40;53.80
65231;DHT22;51813;40.666;16.602;2023-04-25T00:33:02;18.40;54.00
65231;DHT22;51813;40.666;16.602;2023-04-25T00:35:28;18.40;53.00
65231;DHT22;51813;40.666;16.602;2023-04-25T00:37:54;18.40;53.90
65231;DHT22;51813;40.666;16.602;2023-04-25T00:40:20;18.40;53.80
65231;DHT22;51813;40.666;16.602;2023-04-25T00:42:47;18.40;53.80
65231;DHT22;51813;40.666;16.602;2023-04-25T00:45:14;18.40;53.90
65231;DHT22;51813;40.666;16.602;2023-04-25T00:47:41;18.40;53.90
65231;DHT22;51813;40.666;16.602;2023-04-25T00:50:07;18.40;54.00
65231;DHT22;51813;40.666;16.602;2023-04-25T00:52:33;18.40;53.70
65231;DHT22;51813;40.666;16.602;2023-04-25T00:54:59;18.40;53.90
65231;DHT22;51813;40.666;16.602;2023-04-25T00:57:25;18.40;53.90
65231;DHT22;51813;40.666;16.602;2023-04-25T00:59:52;18.40;53.90
65231;DHT22;51813;40.666;16.602;2023-04-25T01:02:19;18.30;53.80
65231;DHT22;51813;40.666;16.602;2023-04-25T01:04:46;18.30;54.00
65231;DHT22;51813;40.666;16.602;2023-04-25T01:07:13;18.40;54.00
65231;DHT22;51813;40.666;16.602;2023-04-25T01:09:39;18.40;54.00
65231;DHT22;51813;40.666;16.602;2023-04-25T01:12:05;18.40;53.90
65231;DHT22;51813;40.666;16.602;2023-04-25T01:14:31;18.40;54.00
65231;DHT22;51813;40.666;16.602;2023-04-25T01:16:57;18.40;54.00
65231;DHT22;51813;40.666;16.602;2023-04-25T01:19:23;18.30;54.00
65231;DHT22;51813;40.666;16.602;2023-04-25T01:21:50;18.30;54.00
65231;DHT22;51813;40.666;16.602;2023-04-25T01:24:15;18.30;53.90
65231;DHT22;51813;40.666;16.602;2023-04-25T01:26:42;18.30;53.90
65231;DHT22;51813;40.666;16.602;2023-04-25T01:29:16;18.30;54.00
65231;DHT22;51813;40.666;16.602;2023-04-25T01:31:43;18.30;53.90
65231;DHT22;51813;40.666;16.602;2023-04-25T01:34:10;18.30;54.00
65231;DHT22;51813;40.666;16.602;2023-04-25T01:36:35;18.30;54.00
65231;DHT22;51813;40.666;16.602;2023-04-25T01:39:01;18.30;53.90
65231;DHT22;51813;40.666;16.602;2023-04-25T01:41:27;18.30;54.00
65231;DHT22;51813;40.666;16.602;2023-04-25T01:43:53;18.30;54.00
65231;DHT22;51813;40.666;16.602;2023-04-25T01:46:19;18.30;54.10
65231;DHT22;51813;40.666;16.602;2023-04-25T01:48:45;18.30;54.10
65231;DHT22;51813;40.666;16.602;2023-04-25T01:51:11;18.30;54.00
65231;DHT22;51813;40.666;16.602;2023-04-25T01:53:37;18.30;54.00
65231;DHT22;51813;40.666;16.602;2023-04-25T01:56:03;18.30;54.10
65231;DHT22;51813;40.666;16.602;2023-04-25T01:58:29;18.30;54.10
65231;DHT22;51813;40.666;16.602;2023-04-25T02:00:55;18.30;54.10
65231;DHT22;51813;40.666;16.602;2023-04-25T02:03:21;18.30;54.10
65231;DHT22;51813;40.666;16.602;2023-04-25T02:05:47;18.30;54.10
65231;DHT22;51813;40.666;16.602;2023-04-25T02:08:12;18.30;54.20
65231;DHT22;51813;40.666;16.602;2023-04-25T02:10:38;18.20;54.10
65231;DHT22;51813;40.666;16.602;2023-04-25T02:13:04;18.20;54.20
65231;DHT22;51813;40.666;16.602;2023-04-25T02:15:30;18.30;54.20
65231;DHT22;51813;40.666;16.602;2023-04-25T02:17:56;18.30;54.20
65231;DHT22;51813;40.666;16.602;2023-04-25T02:20:24;18.30;54.20
65231;DHT22;51813;40.666;16.602;2023-04-25T02:22:50;18.30;54.10
65231;DHT22;51813;40.666;16.602;2023-04-25T02:25:17;18.30;54.10
65231;DHT22;51813;40.666;16.602;2023-04-25T02:27:43;18.30;54.00
65231;DHT22;51813;40.666;16.602;2023-04-25T02:30:09;18.30;54.10
65231;DHT22;51813;40.666;16.602;2023-04-25T02:32:35;18.30;54.00
65231;DHT22;51813;40.666;16.602;2023-04-25T02:35:01;18.20;53.80
65231;DHT22;51813;40.666;16.602;2023-04-25T02:37:33;18.20;53.90
65231;DHT22;51813;40.666;16.602;2023-04-25T02:39:59;18.30;53.90
65231;DHT22;51813;40.666;16.602;2023-04-25T02:42:26;18.20;53.70
65231;DHT22;51813;40.666;16.602;2023-04-25T02:44:51;18.20;53.90
65231;DHT22;51813;40.666;16.602;2023-04-25T02:47:17;18.20;53.70
65231;DHT22;51813;40.666;16.602;2023-04-25T02:49:43;18.20;53.90
65231;DHT22;51813;40.666;16.602;2023-04-25T02:52:08;18.20;53.80
65231;DHT22;51813;40.666;16.602;2023-04-25T02:54:34;18.30;53.70
65231;DHT22;51813;40.666;16.602;2023-04-25T02:57:00;18.20;53.70
65231;DHT22;51813;40.666;16.602;2023-04-25T02:59:28;18.20;53.70
65231;DHT22;51813;40.666;16.602;2023-04-25T03:01:53;18.20;53.60
65231;DHT22;51813;40.666;16.602;2023-04-25T03:04:19;18.20;53.60
65231;DHT22;51813;40.666;16.602;2023-04-25T03:06:46;18.20;53.70
65231;DHT22;51813;40.666;16.602;2023-04-25T03:09:12;18.20;53.60
65231;DHT22;51813;40.666;16.602;2023-04-25T03:11:38;18.20;53.60
65231;DHT22;51813;40.666;16.602;2023-04-25T03:14:04;18.20;53.50
65231;DHT22;51813;40.666;16.602;2023-04-25T03:16:30;18.20;53.70
65231;DHT22;51813;40.666;16.602;2023-04-25T03:18:56;18.20;53.60
65231;DHT22;51813;40.666;16.602;2023-04-25T03:21:22;18.20;53.60
65231;DHT22;51813;40.666;16.602;2023-04-25T03:23:48;18.20;53.60
65231;DHT22;51813;40.666;16.602;2023-04-25T03:26:14;18.20;53.60
65231;DHT22;51813;40.666;16.602;2023-04-25T03:28:41;18.20;53.50
65231;DHT22;51813;40.666;16.602;2023-04-25T03:31:06;18.20;53.50
65231;DHT22;51813;40.666;16.602;2023-04-25T03:33:32;18.20;53.60
65231;DHT22;51813;40.666;16.602;2023-04-25T03:35:58;18.20;53.70
65231;DHT22;51813;40.666;16.602;2023-04-25T03:38:23;18.20;53.60
65231;DHT22;51813;40.666;16.602;2023-04-25T03:40:51;18.20;53.60
65231;DHT22;51813;40.666;16.602;2023-04-25T03:43:17;18.20;53.70
65231;DHT22;51813;40.666;16.602;2023-04-25T03:45:43;18.20;53.60
65231;DHT22;51813;40.666;16.602;2023-04-25T03:48:09;18.20;53.60
65231;DHT22;51813;40.666;16.602;2023-04-25T03:50:34;18.20;53.50
65231;DHT22;51813;40.666;16.602;2023-04-25T03:53:00;18.20;53.60
65231;DHT22;51813;40.666;16.602;2023-04-25T03:55:26;18.20;53.60
65231;DHT22;51813;40.666;16.602;2023-04-25T03:57:52;18.20;53.60
65231;DHT22;51813;40.666;16.602;2023-04-25T04:00:17;18.20;53.60
65231;DHT22;51813;40.666;16.602;2023-04-25T04:02:43;18.20;53.60
65231;DHT22;51813;40.666;16.602;2023-04-25T04:05:09;18.20;53.50
65231;DHT22;51813;40.666;16.602;2023-04-25T04:07:34;18.20;53.50
65231;DHT22;51813;40.666;16.602;2023-04-25T04:10:06;18.20;53.60
65231;DHT22;51813;40.666;16.602;2023-04-25T04:12:32;18.20;53.60
65231;DHT22;51813;40.666;16.602;2023-04-25T04:14:57;18.20;53.60
65231;DHT22;51813;40.666;16.602;2023-04-25T04:17:23;18.20;53.60
65231;DHT22;51813;40.666;16.602;2023-04-25T04:19:49;18.20;53.60
65231;DHT22;51813;40.666;16.602;2023-04-25T04:22:15;18.20;53.60
65231;DHT22;51813;40.666;16.602;2023-04-25T04:24:41;18.20;53.50
65231;DHT22;51813;40.666;16.602;2023-04-25T04:27:09;18.20;53.50
65231;DHT22;51813;40.666;16.602;2023-04-25T04:29:35;18.20;53.60
65231;DHT22;51813;40.666;16.602;2023-04-25T04:32:02;18.20;53.50
65231;DHT22;51813;40.666;16.602;2023-04-25T04:34:28;18.20;53.60
65231;DHT22;51813;40.666;16.602;2023-04-25T04:36:54;18.20;53.60
65231;DHT22;51813;40.666;16.602;2023-04-25T04:39:20;18.20;53.50
65231;DHT22;51813;40.666;16.602;2023-04-25T04:41:46;18.20;53.50
65231;DHT22;51813;40.666;16.602;2023-04-25T04:44:12;18.20;53.40
65231;DHT22;51813;40.666;16.602;2023-04-25T04:46:39;18.20;53.50
65231;DHT22;51813;40.666;16.602;2023-04-25T04:49:06;18.20;53.40
65231;DHT22;51813;40.666;16.602;2023-04-25T04:51:31;18.20;53.30
65231;DHT22;51813;40.666;16.602;2023-04-25T04:53:58;18.20;53.30
65231;DHT22;51813;40.666;16.602;2023-04-25T04:56:30;18.20;53.40
65231;DHT22;51813;40.666;16.602;2023-04-25T04:58:59;18.20;53.40
65231;DHT22;51813;40.666;16.602;2023-04-25T05:01:25;18.20;53.40
65231;DHT22;51813;40.666;16.602;2023-04-25T05:03:52;18.20;53.20
65231;DHT22;51813;40.666;16.602;2023-04-25T05:06:20;18.20;53.10
65231;DHT22;51813;40.666;16.602;2023-04-25T05:08:46;18.20;53.20
65231;DHT22;51813;40.666;16.602;2023-04-25T05:11:12;18.20;53.10
65231;DHT22;51813;40.666;16.602;2023-04-25T05:13:37;18.20;53.10
65231;DHT22;51813;40.666;16.602;2023-04-25T05:16:03;18.20;53.10
65231;DHT22;51813;40.666;16.602;2023-04-25T05:18:29;18.20;53.20
65231;DHT22;51813;40.666;16.602;2023-04-25T05:20:55;18.20;53.10
65231;DHT22;51813;40.666;16.602;2023-04-25T05:23:21;18.20;52.90
65231;DHT22;51813;40.666;16.602;2023-04-25T05:25:46;18.20;53.10
65231;DHT22;51813;40.666;16.602;2023-04-25T05:28:13;18.20;52.80
65231;DHT22;51813;40.666;16.602;2023-04-25T05:30:39;18.20;52.80
65231;DHT22;51813;40.666;16.602;2023-04-25T05:33:05;18.20;52.80
65231;DHT22;51813;40.666;16.602;2023-04-25T05:35:30;18.20;52.10
65231;DHT22;51813;40.666;16.602;2023-04-25T05:37:57;18.20;52.60
65231;DHT22;51813;40.666;16.602;2023-04-25T05:40:23;18.20;52.30
65231;DHT22;51813;40.666;16.602;2023-04-25T05:42:49;18.20;52.60
65231;DHT22;51813;40.666;16.602;2023-04-25T05:45:14;18.20;52.50
65231;DHT22;51813;40.666;16.602;2023-04-25T05:47:40;18.20;52.60
65231;DHT22;51813;40.666;16.602;2023-04-25T05:50:07;18.20;52.60
65231;DHT22;51813;40.666;16.602;2023-04-25T05:52:33;18.20;52.60
65231;DHT22;51813;40.666;16.602;2023-04-25T05:55:00;18.20;52.60
65231;DHT22;51813;40.666;16.602;2023-04-25T05:57:26;18.20;52.60
65231;DHT22;51813;40.666;16.602;2023-04-25T05:59:53;18.20;52.70
65231;DHT22;51813;40.666;16.602;2023-04-25T06:02:20;18.20;52.60
65231;DHT22;51813;40.666;16.602;2023-04-25T06:04:48;18.20;52.50
65231;DHT22;51813;40.666;16.602;2023-04-25T06:07:14;18.20;52.50
65231;DHT22;51813;40.666;16.602;2023-04-25T06:09:40;18.20;52.60
65231;DHT22;51813;40.666;16.602;2023-04-25T06:12:06;18.20;52.40
65231;DHT22;51813;40.666;16.602;2023-04-25T06:14:33;18.20;52.20
65231;DHT22;51813;40.666;16.602;2023-04-25T06:16:58;18.20;52.70
65231;DHT22;51813;40.666;16.602;2023-04-25T06:19:24;18.20;52.90
65231;DHT22;51813;40.666;16.602;2023-04-25T06:21:50;18.20;52.60
65231;DHT22;51813;40.666;16.602;2023-04-25T06:24:16;18.20;52.70
65231;DHT22;51813;40.666;16.602;2023-04-25T06:26:41;18.20;52.60
65231;DHT22;51813;40.666;16.602;2023-04-25T06:29:07;18.20;52.90
65231;DHT22;51813;40.666;16.602;2023-04-25T06:31:33;18.20;52.60
65231;DHT22;51813;40.666;16.602;2023-04-25T06:33:59;18.20;52.70
65231;DHT22;51813;40.666;16.602;2023-04-25T06:36:24;18.20;52.70
65231;DHT22;51813;40.666;16.602;2023-04-25T06:38:51;18.20;52.70
65231;DHT22;51813;40.666;16.602;2023-04-25T06:41:18;18.20;52.70
65231;DHT22;51813;40.666;16.602;2023-04-25T06:43:44;18.20;52.70
65231;DHT22;51813;40.666;16.602;2023-04-25T06:46:10;18.20;52.70
65231;DHT22;51813;40.666;16.602;2023-04-25T06:48:36;18.20;53.10
65231;DHT22;51813;40.666;16.602;2023-04-25T06:51:02;18.20;53.20
65231;DHT22;51813;40.666;16.602;2023-04-25T06:53:27;18.20;52.70
65231;DHT22;51813;40.666;16.602;2023-04-25T06:55:53;18.20;53.40
65231;DHT22;51813;40.666;16.602;2023-04-25T06:58:19;18.20;53.60
65231;DHT22;51813;40.666;16.602;2023-04-25T07:00:45;18.30;53.90
65231;DHT22;51813;40.666;16.602;2023-04-25T07:03:10;18.30;52.90
65231;DHT22;51813;40.666;16.602;2023-04-25T07:05:37;18.30;53.40
65231;DHT22;51813;40.666;16.602;2023-04-25T07:08:02;18.30;51.50
65231;DHT22;51813;40.666;16.602;2023-04-25T07:10:29;18.30;52.10
65231;DHT22;51813;40.666;16.602;2023-04-25T07:12:54;18.40;53.00
65231;DHT22;51813;40.666;16.602;2023-04-25T07:15:20;18.40;52.70
65231;DHT22;51813;40.666;16.602;2023-04-25T07:17:46;18.40;51.00
65231;DHT22;51813;40.666;16.602;2023-04-25T07:20:12;18.40;51.70
65231;DHT22;51813;40.666;16.602;2023-04-25T07:22:37;18.40;52.00
65231;DHT22;51813;40.666;16.602;2023-04-25T07:25:03;18.40;51.00
65231;DHT22;51813;40.666;16.602;2023-04-25T07:27:32;18.40;50.40
65231;DHT22;51813;40.666;16.602;2023-04-25T07:29:58;18.40;50.60
65231;DHT22;51813;40.666;16.602;2023-04-25T07:32:24;18.50;51.60
65231;DHT22;51813;40.666;16.602;2023-04-25T07:34:50;18.50;51.50
65231;DHT22;51813;40.666;16.602;2023-04-25T07:37:16;18.50;51.10
65231;DHT22;51813;40.666;16.602;2023-04-25T07:39:44;18.50;51.40
65231;DHT22;51813;40.666;16.602;2023-04-25T07:42:11;18.50;50.60
65231;DHT22;51813;40.666;16.602;2023-04-25T07:44:37;18.50;51.00
65231;DHT22;51813;40.666;16.602;2023-04-25T07:47:06;18.50;50.30
65231;DHT22;51813;40.666;16.602;2023-04-25T07:49:38;18.50;50.20
65231;DHT22;51813;40.666;16.602;2023-04-25T07:52:04;18.50;50.80
65231;DHT22;51813;40.666;16.602;2023-04-25T07:54:31;18.60;50.70
65231;DHT22;51813;40.666;16.602;2023-04-25T07:56:58;18.60;50.70
65231;DHT22;51813;40.666;16.602;2023-04-25T07:59:24;18.60;50.70
65231;DHT22;51813;40.666;16.602;2023-04-25T08:01:50;18.60;50.30
65231;DHT22;51813;40.666;16.602;2023-04-25T08:04:16;18.60;50.00
65231;DHT22;51813;40.666;16.602;2023-04-25T08:06:42;18.60;50.20
65231;DHT22;51813;40.666;16.602;2023-04-25T08:09:08;18.70;50.10
65231;DHT22;51813;40.666;16.602;2023-04-25T08:11:35;18.70;50.10
65231;DHT22;51813;40.666;16.602;2023-04-25T08:14:00;18.70;50.30
65231;DHT22;51813;40.666;16.602;2023-04-25T08:16:27;18.70;50.40
65231;DHT22;51813;40.666;16.602;2023-04-25T08:18:53;18.60;50.40
65231;DHT22;51813;40.666;16.602;2023-04-25T08:21:18;18.60;50.10
65231;DHT22;51813;40.666;16.602;2023-04-25T08:23:44;18.70;50.20
65231;DHT22;51813;40.666;16.602;2023-04-25T08:26:10;18.60;50.10
65231;DHT22;51813;40.666;16.602;2023-04-25T08:28:36;18.60;50.10
65231;DHT22;51813;40.666;16.602;2023-04-25T08:31:01;18.70;50.10
65231;DHT22;51813;40.666;16.602;2023-04-25T08:33:27;18.70;50.20
65231;DHT22;51813;40.666;16.602;2023-04-25T08:35:53;18.70;50.00
65231;DHT22;51813;40.666;16.602;2023-04-25T08:38:18;18.80;50.20
65231;DHT22;51813;40.666;16.602;2023-04-25T08:40:49;18.90;50.20
65231;DHT22;51813;40.666;16.602;2023-04-25T08:43:18;19.10;49.90
65231;DHT22;51813;40.666;16.602;2023-04-25T08:45:44;19.30;49.70
65231;DHT22;51813;40.666;16.602;2023-04-25T08:48:13;19.50;49.20
65231;DHT22;51813;40.666;16.602;2023-04-25T08:50:40;19.60;48.50
65231;DHT22;51813;40.666;16.602;2023-04-25T08:53:12;19.80;47.90
65231;DHT22;51813;40.666;16.602;2023-04-25T08:55:41;20.00;47.50
65231;DHT22;51813;40.666;16.602;2023-04-25T08:58:09;20.10;47.50
65231;DHT22;51813;40.666;16.602;2023-04-25T09:00:36;20.10;46.10
65231;DHT22;51813;40.666;16.602;2023-04-25T09:03:03;20.30;46.10
65231;DHT22;51813;40.666;16.602;2023-04-25T09:05:29;20.40;45.40
65231;DHT22;51813;40.666;16.602;2023-04-25T09:07:55;20.50;45.60
65231;DHT22;51813;40.666;16.602;2023-04-25T09:10:22;20.60;45.20
65231;DHT22;51813;40.666;16.602;2023-04-25T09:13:07;20.60;45.00
65231;DHT22;51813;40.666;16.602;2023-04-25T09:15:48;20.70;45.20
65231;DHT22;51813;40.666;16.602;2023-04-25T09:18:25;20.80;45.10
65231;DHT22;51813;40.666;16.602;2023-04-25T09:20:52;21.00;44.90
65231;DHT22;51813;40.666;16.602;2023-04-25T09:23:19;21.00;44.90
65231;DHT22;51813;40.666;16.602;2023-04-25T09:25:48;21.10;44.70
65231;DHT22;51813;40.666;16.602;2023-04-25T09:28:14;21.10;44.30
65231;DHT22;51813;40.666;16.602;2023-04-25T09:30:39;21.20;44.60
65231;DHT22;51813;40.666;16.602;2023-04-25T09:33:06;21.20;44.20
65231;DHT22;51813;40.666;16.602;2023-04-25T09:35:36;21.20;44.40
65231;DHT22;51813;40.666;16.602;2023-04-25T09:38:10;21.30;44.00
65231;DHT22;51813;40.666;16.602;2023-04-25T09:40:45;21.30;44.00
65231;DHT22;51813;40.666;16.602;2023-04-25T09:43:19;21.40;44.10
65231;DHT22;51813;40.666;16.602;2023-04-25T09:45:45;21.40;44.20
65231;DHT22;51813;40.666;16.602;2023-04-25T09:48:20;21.40;43.90
65231;DHT22;51813;40.666;16.602;2023-04-25T09:53:29;21.40;44.30
65231;DHT22;51813;40.666;16.602;2023-04-25T09:55:56;21.50;43.90
65231;DHT22;51813;40.666;16.602;2023-04-25T09:58:24;21.50;43.40
65231;DHT22;51813;40.666;16.602;2023-04-25T10:00:51;21.50;43.10
65231;DHT22;51813;40.666;16.602;2023-04-25T10:03:18;21.60;42.50
65231;DHT22;51813;40.666;16.602;2023-04-25T10:05:45;21.60;42.50
65231;DHT22;51813;40.666;16.602;2023-04-25T10:08:12;21.60;42.40
65231;DHT22;51813;40.666;16.602;2023-04-25T10:10:40;21.60;42.60
65231;DHT22;51813;40.666;16.602;2023-04-25T10:13:06;21.30;42.60
65231;DHT22;51813;40.666;16.602;2023-04-25T10:15:35;21.10;43.30
65231;DHT22;51813;40.666;16.602;2023-04-25T10:18:05;21.00;43.90
65231;DHT22;51813;40.666;16.602;2023-04-25T10:20:32;20.90;44.80
65231;DHT22;51813;40.666;16.602;2023-04-25T10:23:06;20.80;44.80
65231;DHT22;51813;40.666;16.602;2023-04-25T10:25:33;20.90;45.10
65231;DHT22;51813;40.666;16.602;2023-04-25T10:27:59;20.60;44.60
65231;DHT22;51813;40.666;16.602;2023-04-25T10:30:26;20.50;44.40
65231;DHT22;51813;40.666;16.602;2023-04-25T10:32:55;20.50;45.30
65231;DHT22;51813;40.666;16.602;2023-04-25T10:35:28;20.40;46.30
65231;DHT22;51813;40.666;16.602;2023-04-25T10:38:03;20.30;45.80
65231;DHT22;51813;40.666;16.602;2023-04-25T10:40:33;20.30;46.10
65231;DHT22;51813;40.666;16.602;2023-04-25T10:46:23;20.10;47.00
65231;DHT22;51813;40.666;16.602;2023-04-25T10:48:54;20.10;47.50
65231;DHT22;51813;40.666;16.602;2023-04-25T10:54:01;20.00;47.70
65231;DHT22;51813;40.666;16.602;2023-04-25T10:56:32;19.90;47.70
65231;DHT22;51813;40.666;16.602;2023-04-25T10:59:14;19.80;47.70
65231;DHT22;51813;40.666;16.602;2023-04-25T11:01:45;19.80;48.30
65231;DHT22;51813;40.666;16.602;2023-04-25T11:04:24;19.80;48.40
65231;DHT22;51813;40.666;16.602;2023-04-25T11:09:19;19.70;48.80
65231;DHT22;51813;40.666;16.602;2023-04-25T11:11:58;19.70;49.10
65231;DHT22;51813;40.666;16.602;2023-04-25T11:14:24;19.60;48.90
65231;DHT22;51813;40.666;16.602;2023-04-25T11:16:54;19.60;49.60
65231;DHT22;51813;40.666;16.602;2023-04-25T11:19:21;19.60;49.70
65231;DHT22;51813;40.666;16.602;2023-04-25T11:21:47;19.50;49.60
65231;DHT22;51813;40.666;16.602;2023-04-25T11:24:13;19.60;49.50
65231;DHT22;51813;40.666;16.602;2023-04-25T11:26:41;19.50;49.60
65231;DHT22;51813;40.666;16.602;2023-04-25T11:29:06;19.50;48.50
65231;DHT22;51813;40.666;16.602;2023-04-25T11:31:32;19.50;49.30
65231;DHT22;51813;40.666;16.602;2023-04-25T11:33:58;19.40;49.80
65231;DHT22;51813;40.666;16.602;2023-04-25T11:36:25;19.40;48.80
65231;DHT22;51813;40.666;16.602;2023-04-25T11:38:52;19.40;48.60
65231;DHT22;51813;40.666;16.602;2023-04-25T11:41:19;19.40;50.00
65231;DHT22;51813;40.666;16.602;2023-04-25T11:43:44;19.40;48.80
65231;DHT22;51813;40.666;16.602;2023-04-25T11:46:10;19.30;49.20
65231;DHT22;51813;40.666;16.602;2023-04-25T11:48:40;19.30;48.70
65231;DHT22;51813;40.666;16.602;2023-04-25T11:51:07;19.30;49.40
65231;DHT22;51813;40.666;16.602;2023-04-25T11:53:33;19.30;49.40
65231;DHT22;51813;40.666;16.602;2023-04-25T11:55:58;19.30;49.00
65231;DHT22;51813;40.666;16.602;2023-04-25T11:58:26;19.30;50.00
65231;DHT22;51813;40.666;16.602;2023-04-25T12:00:51;19.20;49.30
65231;DHT22;51813;40.666;16.602;2023-04-25T12:03:18;19.20;49.00
65231;DHT22;51813;40.666;16.602;2023-04-25T12:05:45;19.20;49.60
65231;DHT22;51813;40.666;16.602;2023-04-25T12:08:15;19.20;49.30
65231;DHT22;51813;40.666;16.602;2023-04-25T12:10:43;19.20;49.50
65231;DHT22;51813;40.666;16.602;2023-04-25T12:13:20;19.10;50.00
65231;DHT22;51813;40.666;16.602;2023-04-25T12:15:45;19.10;49.70
65231;DHT22;51813;40.666;16.602;2023-04-25T12:18:11;19.10;48.90
65231;DHT22;51813;40.666;16.602;2023-04-25T12:20:37;19.10;48.90
65231;DHT22;51813;40.666;16.602;2023-04-25T12:23:06;19.10;48.90
65231;DHT22;51813;40.666;16.602;2023-04-25T12:25:44;19.10;48.80
65231;DHT22;51813;40.666;16.602;2023-04-25T12:33:19;19.10;49.60
65231;DHT22;51813;40.666;16.602;2023-04-25T12:35:45;19.10;49.30
65231;DHT22;51813;40.666;16.602;2023-04-25T12:38:10;19.10;49.70
65231;DHT22;51813;40.666;16.602;2023-04-25T12:40:36;19.10;49.50
65231;DHT22;51813;40.666;16.602;2023-04-25T12:43:02;19.10;49.70
65231;DHT22;51813;40.666;16.602;2023-04-25T12:45:28;19.10;49.00
65231;DHT22;51813;40.666;16.602;2023-04-25T12:47:53;19.10;49.70
65231;DHT22;51813;40.666;16.602;2023-04-25T12:50:19;19.10;49.20
65231;DHT22;51813;40.666;16.602;2023-04-25T12:52:45;19.10;49.30
65231;DHT22;51813;40.666;16.602;2023-04-25T12:55:11;19.10;49.50
65231;DHT22;51813;40.666;16.602;2023-04-25T12:57:36;19.10;49.20
65231;DHT22;51813;40.666;16.602;2023-04-25T13:00:02;19.10;49.40
65231;DHT22;51813;40.666;16.602;2023-04-25T13:02:29;19.20;49.00
65231;DHT22;51813;40.666;16.602;2023-04-25T13:04:55;19.20;49.00
65231;DHT22;51813;40.666;16.602;2023-04-25T13:07:20;19.20;49.50
65231;DHT22;51813;40.666;16.602;2023-04-25T13:09:46;19.20;49.10
65231;DHT22;51813;40.666;16.602;2023-04-25T13:12:12;19.20;49.40
65231;DHT22;51813;40.666;16.602;2023-04-25T13:14:37;19.20;49.10
65231;DHT22;51813;40.666;16.602;2023-04-25T13:17:03;19.20;49.00
65231;DHT22;51813;40.666;16.602;2023-04-25T13:19:29;19.20;49.30
65231;DHT22;51813;40.666;16.602;2023-04-25T13:21:55;19.20;48.80
65231;DHT22;51813;40.666;16.602;2023-04-25T13:24:20;19.20;49.20
65231;DHT22;51813;40.666;16.602;2023-04-25T13:26:46;19.10;49.20
65231;DHT22;51813;40.666;16.602;2023-04-25T13:29:11;19.20;48.90
65231;DHT22;51813;40.666;16.602;2023-04-25T13:31:37;19.20;48.90
65231;DHT22;51813;40.666;16.602;2023-04-25T13:34:03;19.20;48.90
65231;DHT22;51813;40.666;16.602;2023-04-25T13:36:29;19.20;48.60
65231;DHT22;51813;40.666;16.602;2023-04-25T13:38:54;19.10;48.70
65231;DHT22;51813;40.666;16.602;2023-04-25T13:41:20;19.20;48.60
65231;DHT22;51813;40.666;16.602;2023-04-25T13:43:46;19.20;48.90
65231;DHT22;51813;40.666;16.602;2023-04-25T13:46:12;19.20;49.10
65231;DHT22;51813;40.666;16.602;2023-04-25T13:48:39;19.20;49.10
65231;DHT22;51813;40.666;16.602;2023-04-25T13:51:04;19.10;49.10
65231;DHT22;51813;40.666;16.602;2023-04-25T13:53:30;19.20;49.50
65231;DHT22;51813;40.666;16.602;2023-04-25T13:55:56;19.20;49.40
65231;DHT22;51813;40.666;16.602;2023-04-25T13:58:21;19.20;48.80
65231;DHT22;51813;40.666;16.602;2023-04-25T14:00:47;19.30;48.70
65231;DHT22;51813;40.666;16.602;2023-04-25T14:03:13;19.40;49.20
65231;DHT22;51813;40.666;16.602;2023-04-25T14:05:39;19.50;47.50
65231;DHT22;51813;40.666;16.602;2023-04-25T14:08:06;19.70;47.00
65231;DHT22;51813;40.666;16.602;2023-04-25T14:10:32;19.90;46.80
65231;DHT22;51813;40.666;16.602;2023-04-25T14:12:58;20.10;45.80
65231;DHT22;51813;40.666;16.602;2023-04-25T14:15:24;20.30;45.60
65231;DHT22;51813;40.666;16.602;2023-04-25T14:17:50;20.50;44.80
65231;DHT22;51813;40.666;16.602;2023-04-25T14:20:16;20.60;44.40
65231;DHT22;51813;40.666;16.602;2023-04-25T14:22:45;20.70;43.50
65231;DHT22;51813;40.666;16.602;2023-04-25T14:25:11;20.90;43.80
65231;DHT22;51813;40.666;16.602;2023-04-25T14:27:37;21.00;43.70
65231;DHT22;51813;40.666;16.602;2023-04-25T14:30:03;21.10;42.20
65231;DHT22;51813;40.666;16.602;2023-04-25T14:32:30;21.20;41.90
65231;DHT22;51813;40.666;16.602;2023-04-25T14:34:57;21.30;41.40
65231;DHT22;51813;40.666;16.602;2023-04-25T14:37:23;21.40;41.00
65231;DHT22;51813;40.666;16.602;2023-04-25T14:39:48;21.50;40.90
65231;DHT22;51813;40.666;16.602;2023-04-25T14:42:14;21.50;42.00
65231;DHT22;51813;40.666;16.602;2023-04-25T14:44:40;21.60;42.10
65231;DHT22;51813;40.666;16.602;2023-04-25T14:47:05;21.60;42.00
65231;DHT22;51813;40.666;16.602;2023-04-25T14:49:32;21.60;42.40
65231;DHT22;51813;40.666;16.602;2023-04-25T14:51:58;21.60;42.60
65231;DHT22;51813;40.666;16.602;2023-04-25T14:54:24;21.70;42.60
65231;DHT22;51813;40.666;16.602;2023-04-25T14:56:49;21.70;43.10
65231;DHT22;51813;40.666;16.602;2023-04-25T14:59:15;21.80;43.20
65231;DHT22;51813;40.666;16.602;2023-04-25T15:01:41;21.80;43.20
65231;DHT22;51813;40.666;16.602;2023-04-25T15:04:06;21.90;43.20
65231;DHT22;51813;40.666;16.602;2023-04-25T15:06:33;21.90;43.50
65231;DHT22;51813;40.666;16.602;2023-04-25T15:08:58;21.90;43.00
65231;DHT22;51813;40.666;16.602;2023-04-25T15:11:24;22.00;42.90
65231;DHT22;51813;40.666;16.602;2023-04-25T15:13:50;22.00;42.70
65231;DHT22;51813;40.666;16.602;2023-04-25T15:16:16;22.00;42.70
65231;DHT22;51813;40.666;16.602;2023-04-25T15:18:41;22.00;42.80
65231;DHT22;51813;40.666;16.602;2023-04-25T15:21:07;22.10;42.90
65231;DHT22;51813;40.666;16.602;2023-04-25T15:23:33;22.20;42.40
65231;DHT22;51813;40.666;16.602;2023-04-25T15:25:58;22.20;42.00
65231;DHT22;51813;40.666;16.602;2023-04-25T15:28:24;22.10;42.40